Norwegian Jewel — C6TX6 — position and weather

sailwx.info

Track history (hours):
 
Tides and Currents Weather Stations Pressure Air Temp Water Temp Dewpoint Dewpoint Depression Visibility Wind Speed Wind Dir Waves Ship Positions

Norwegian Jewel

Last reported at 2017-Jun-26 11:00 UTC. Time now 2017-Jun-26 12:04 UTC.
Position N 54°42' W 131°06'.

Type: Ship. MMSI: 311827000.

Wind from 260 at 15 knots

Barometer 1015.0 mb
Air temperature 10.3 ° C

Date/timePositionNaut miles runAvg speedWind from/ knotsBaromVisibWave heightAir tempDewpointWater temp
2017-Jun-26 11:00N 54°42' W 131°06'22317.1 260 / 151015.0 10.3
2017-Jun-25 22:00N 51°06' W 129°36'14118.5 310 / 121018.0 11.7
2017-Jun-25 14:22N 49°23' W 127°05'616.5
2017-Jun-25 14:00N 49°18' W 127°00'1021.6 310 / 211015.010.8 13.513.013.0
2017-Jun-25 13:30N 49°13' W 126°46'1019.0
2017-Jun-25 13:00N 49°08' W 126°34'2177.5
2017-Jun-25 13:00N 49°06' W 126°36'1020.6 330 / 211024.0 14.1
2017-Jun-25 12:31N 49°02' W 126°22'1019.5
2017-Jun-25 12:01N 48°56' W 126°10'1019.5
2017-Jun-25 11:31N 48°51' W 125°58'1019.2
2017-Jun-25 11:01N 48°45' W 125°46'816.1
2017-Jun-25 10:31N 48°40' W 125°36'714.1
2017-Jun-25 10:00N 48°36' W 125°27'816.2
2017-Jun-25 09:31N 48°33' W 125°16'816.8
2017-Jun-25 09:01N 48°31' W 125°04'816.9
2017-Jun-25 08:31N 48°31' W 124°51'816.9
2017-Jun-25 08:01N 48°29' W 124°39'917.0
2017-Jun-25 07:31N 48°26' W 124°27'1016.9
2017-Jun-25 06:56N 48°22' W 124°13'717.1
2017-Jun-25 06:30N 48°20' W 124°03'816.9
2017-Jun-25 06:00N 48°18' W 123°51'917.6
2017-Jun-25 05:29N 48°16' W 123°37'816.5
2017-Jun-25 05:00N 48°12' W 123°26'611.4
2017-Jun-25 04:30N 48°09' W 123°20'816.4
2017-Jun-25 04:00N 48°12' W 123°08'1018.6
2017-Jun-25 03:29N 48°12' W 122°54'1019.2
2017-Jun-25 02:59N 48°08' W 122°41'918.6
2017-Jun-25 02:30N 47°60' W 122°36'918.8
2017-Jun-25 02:00N 47°52' W 122°28'918.4
2017-Jun-25 01:31N 47°43' W 122°27'713.9
2017-Jun-25 01:00N 47°37' W 122°22'1 1.6
2017-Jun-25 00:30N 47°37' W 122°21'0 0.0
2017-Jun-25 00:00N 47°37' W 122°21'0 0.0
2017-Jun-24 23:30N 47°37' W 122°21'0 0.0
2017-Jun-24 23:00N 47°37' W 122°21'0 0.0
2017-Jun-24 22:30N 47°37' W 122°21'0 0.0
2017-Jun-24 22:00N 47°37' W 122°21'0 0.0
2017-Jun-24 21:30N 47°37' W 122°21'0 0.0
2017-Jun-24 21:00N 47°37' W 122°21'0 0.0
2017-Jun-24 20:30N 47°37' W 122°21'0 0.0
2017-Jun-24 20:00N 47°37' W 122°21'0 0.0
2017-Jun-24 19:30N 47°37' W 122°21'0 0.0
2017-Jun-24 19:00N 47°37' W 122°21'0 0.0
2017-Jun-24 18:30N 47°37' W 122°21'0 0.0
2017-Jun-24 18:00N 47°37' W 122°21'0 0.0
2017-Jun-24 17:30N 47°37' W 122°21'0 0.0
2017-Jun-24 17:00N 47°37' W 122°21'0 0.0
2017-Jun-24 16:30N 47°37' W 122°21'0 0.0
2017-Jun-24 16:00N 47°37' W 122°21'0 0.0
2017-Jun-24 15:30N 47°37' W 122°21'0 0.0
2017-Jun-24 15:00N 47°37' W 122°21'0 0.0
2017-Jun-24 14:00N 47°37' W 122°21'0 0.0
2017-Jun-24 13:30N 47°37' W 122°21'0 0.0
2017-Jun-24 13:00N 47°37' W 122°21'0 0.3
2017-Jun-24 12:30N 47°37' W 122°21'2 4.5
2017-Jun-24 12:00N 47°37' W 122°24'4 8.4
2017-Jun-24 11:30N 47°41' W 122°28'510.3
2017-Jun-24 11:00N 47°46' W 122°27'510.7
2017-Jun-24 10:30N 47°51' W 122°29'1019.8
2017-Jun-24 10:00N 48°00' W 122°36'51046.9 360 / 111021.0 15.1
2017-Jun-24 09:59N 47°56' W 122°32'511.4
2017-Jun-24 09:30N 48°00' W 122°37'611.5
2017-Jun-24 09:00N 48°06' W 122°40'611.7
2017-Jun-24 08:30N 48°10' W 122°46'611.4
2017-Jun-24 08:00N 48°11' W 122°54'611.5
2017-Jun-24 07:30N 48°12' W 123°03'611.2
2017-Jun-24 07:00N 48°11' W 123°11'611.4
2017-Jun-24 06:30N 48°11' W 123°19'611.9
2017-Jun-24 06:00N 48°12' W 123°28'714.3
2017-Jun-24 05:30N 48°19' W 123°27'611.8
2017-Jun-24 05:00N 48°24' W 123°24'1 1.6
2017-Jun-24 04:28N 48°25' W 123°23'0 0.0
2017-Jun-24 03:55N 48°25' W 123°23'0 0.0
2017-Jun-24 03:25N 48°25' W 123°23'1820.4
2017-Jun-24 02:33N 48°14' W 123°44'122.3
2017-Jun-24 02:30N 48°14' W 123°45'1326.2
2017-Jun-24 02:00N 48°17' W 124°04'1223.7
2017-Jun-24 01:30N 48°22' W 124°21'1121.6
2017-Jun-24 01:00N 48°26' W 124°35'1733.4
2017-Jun-24 00:30N 48°28' W 125°00'64124.3
2017-Jun-23 23:59N 48°25' W 123°23'0 0.0
2017-Jun-23 23:29N 48°25' W 123°23'0 0.0
2017-Jun-23 22:59N 48°25' W 123°23'0 0.0
2017-Jun-23 22:29N 48°25' W 123°23'0 0.0
2017-Jun-23 21:58N 48°25' W 123°23'0 0.0
2017-Jun-23 21:28N 48°25' W 123°23'0 0.1
2017-Jun-23 21:00N 48°25' W 123°23'2 3.6
2017-Jun-23 20:30N 48°24' W 123°26'611.4
2017-Jun-23 20:00N 48°18' W 123°25'6380.4
2017-Jun-23 20:00N 48°12' W 123°24'816.9 120 / 151023.0 16.1 10.1
2017-Jun-23 19:30N 48°13' W 123°36'67134.6
2017-Jun-23 19:00N 48°29' W 125°14'1223.8
2017-Jun-23 18:30N 48°37' W 125°29'4689.6
2017-Jun-23 17:59N 48°23' W 124°23'1021.1
2017-Jun-23 17:30N 48°27' W 124°37'917.4
2017-Jun-23 17:00N 48°28' W 124°49'918.6
2017-Jun-23 16:30N 48°28' W 125°03'918.1
2017-Jun-23 16:00N 48°31' W 125°17'918.9
2017-Jun-23 15:30N 48°36' W 125°28'1019.4
2017-Jun-23 15:00N 48°41' W 125°41'1919.2
2017-Jun-23 14:00N 48°51' W 126°06'3212.4
2017-Jun-23 14:00N 48°48' W 126°06'1327.1 310 / 151024.010.8 14.013.513.0
2017-Jun-23 13:30N 48°58' W 126°19'1122.5
2017-Jun-23 13:00N 49°05' W 126°32'7449.6
2017-Jun-23 13:00N 49°00' W 126°24'1938.1 310 / 141024.010.8 13.513.213.0
2017-Jun-23 12:30N 49°12' W 126°45'1122.8
2017-Jun-23 12:01N 49°20' W 126°58'1122.9
2017-Jun-23 11:31N 49°27' W 127°12'1934.4
2017-Jun-23 10:58N 49°38' W 127°35'4 9.2
2017-Jun-23 10:31N 49°40' W 127°41'1122.7
2017-Jun-23 10:00N 49°49' W 127°53'164.3
2017-Jun-23 10:00N 49°48' W 127°54'1123.0 350 / 24 13.1
2017-Jun-23 09:30N 49°56' W 128°06'1122.4
2017-Jun-23 09:00N 50°04' W 128°19'1122.7
2017-Jun-23 08:30N 50°12' W 128°31'1122.6
2017-Jun-23 08:00N 50°20' W 128°44'1522.2
2017-Jun-23 07:19N 50°30' W 129°01'722.1
2017-Jun-23 07:00N 50°35' W 129°08'1122.6
2017-Jun-23 06:30N 50°43' W 129°21'1122.6
2017-Jun-23 06:00N 50°52' W 129°34'8120.1
2017-Jun-23 02:00N 51°48' W 131°06'3030.3 270 / 51029.010.8 12.111.613.0
2017-Jun-23 01:00N 52°12' W 131°36'19719.7 310 / 101030.010.8 13.512.813.0
2017-Jun-22 15:00N 55°06' W 134°12'3737.4 200 / 131030.010.8 10.410.213.0
2017-Jun-22 14:00N 55°42' W 134°30'2424.2 120 / 51029.0 5.4 10.610.412.0
2017-Jun-22 13:00N 56°06' W 134°24'   120 / 81029.010.8 10.610.112.0
2017-Jun-19 03:00N 52°36' W 130°24'3216.0 130 / 271013.0 5.4 11.411.213.0
2017-Jun-19 01:00N 52°06' W 130°06'2512.6 140 / 181018.0 5.4 11.711.513.0
2017-Jun-18 23:00N 51°42' W 129°54'3919.5 150 / 201016.0 12.2
2017-Jun-18 21:00N 51°06' W 129°30'11418.9 140 / 221016.0 12.7
2017-Jun-18 15:00N 49°42' W 127°30'1716.7 130 / 271016.0 2.2 12.912.713.0
2017-Jun-18 14:00N 49°30' W 127°12'6 7.9 130 / 241016.0 5.4 12.512.312.0
2017-Jun-18 13:14N 49°25' W 127°07'519.6
2017-Jun-18 12:59N 49°22' W 127°01'919.4
2017-Jun-18 12:30N 49°15' W 126°51'1019.4
2017-Jun-18 12:00N 49°10' W 126°39'1019.9
2017-Jun-18 11:30N 49°04' W 126°26'1019.9
2017-Jun-18 11:00N 48°59' W 126°13'3204.8
2017-Jun-18 11:00N 49°00' W 126°18'1327.1 110 / 251017.0 9.0
2017-Jun-18 10:30N 48°53' W 126°01'918.4
2017-Jun-18 10:00N 48°47' W 125°50'917.1
2017-Jun-18 09:30N 48°42' W 125°40'917.1
2017-Jun-18 09:00N 48°37' W 125°29'5369.8
2017-Jun-18 09:00N 48°36' W 125°36'1225.0 100 / 251018.0
2017-Jun-18 08:30N 48°33' W 125°18'816.7
2017-Jun-18 08:00N 48°31' W 125°06'917.3
2017-Jun-18 07:30N 48°31' W 124°53'815.6
2017-Jun-18 07:00N 48°30' W 124°41'815.1
2017-Jun-18 06:30N 48°27' W 124°31'815.8
2017-Jun-18 06:00N 48°24' W 124°20'815.6
2017-Jun-18 05:30N 48°21' W 124°09'815.7
2017-Jun-18 05:00N 48°18' W 123°58'815.5
2017-Jun-18 04:30N 48°16' W 123°47'815.0
2017-Jun-18 04:00N 48°15' W 123°35'714.2
2017-Jun-18 03:30N 48°12' W 123°26'611.3
2017-Jun-18 03:00N 48°09' W 123°19'917.8
2017-Jun-18 02:30N 48°13' W 123°07'1018.8
2017-Jun-18 01:59N 48°11' W 122°52'1317.4
2017-Jun-18 01:14N 48°03' W 122°38'519.7
2017-Jun-18 01:00N 47°59' W 122°35'919.2
2017-Jun-18 00:30N 47°50' W 122°28'1019.9
2017-Jun-18 00:01N 47°41' W 122°27'611.3
2017-Jun-17 23:30N 47°37' W 122°21'0 0.3
2017-Jun-17 23:00N 47°37' W 122°21'0 0.0
2017-Jun-17 22:30N 47°37' W 122°21'0 0.0
2017-Jun-17 22:00N 47°37' W 122°21'0 0.0
2017-Jun-17 21:30N 47°37' W 122°21'0 0.0
2017-Jun-17 21:00N 47°37' W 122°21'0 0.0
2017-Jun-17 20:30N 47°37' W 122°21'0 0.0
2017-Jun-17 19:59N 47°37' W 122°21'0 0.0
2017-Jun-17 19:29N 47°37' W 122°21'0 0.0
2017-Jun-17 18:59N 47°37' W 122°21'0 0.0
2017-Jun-17 18:29N 47°37' W 122°21'0 0.0
2017-Jun-17 17:59N 47°37' W 122°21'0 0.0
2017-Jun-17 17:28N 47°37' W 122°21'0 0.0
2017-Jun-17 16:58N 47°37' W 122°21'0 0.0
2017-Jun-17 16:30N 47°37' W 122°21'0 0.0
2017-Jun-17 16:00N 47°37' W 122°21'0 0.0
2017-Jun-17 15:30N 47°37' W 122°21'0 0.0
2017-Jun-17 15:00N 47°37' W 122°21'0 0.0
2017-Jun-17 14:31N 47°37' W 122°21'0 0.0
2017-Jun-17 13:29N 47°37' W 122°21'0 0.0
2017-Jun-17 13:00N 47°37' W 122°21'1 1.0
2017-Jun-17 12:31N 47°36' W 122°21'3 6.8
2017-Jun-17 12:00N 47°37' W 122°26'4 8.7
2017-Jun-17 11:30N 47°41' W 122°28'510.3
2017-Jun-17 11:00N 47°46' W 122°27'510.7
2017-Jun-17 10:30N 47°52' W 122°29'510.2
2017-Jun-17 10:00N 47°56' W 122°32'510.2
2017-Jun-17 09:30N 47°60' W 122°37'610.8
2017-Jun-17 08:57N 48°06' W 122°40'510.3
2017-Jun-17 08:28N 48°09' W 122°45'510.2
2017-Jun-17 08:00N 48°11' W 122°52'611.0
2017-Jun-17 07:29N 48°12' W 123°00'511.2
2017-Jun-17 07:00N 48°12' W 123°08'611.1
2017-Jun-17 06:30N 48°11' W 123°16'510.3
2017-Jun-17 06:01N 48°10' W 123°24'713.7
2017-Jun-17 05:29N 48°16' W 123°30'713.6
2017-Jun-17 05:00N 48°22' W 123°25'3 6.5
2017-Jun-17 04:30N 48°25' W 123°23'0 0.1
2017-Jun-17 02:59N 48°25' W 123°23'0 0.0
2017-Jun-17 01:52N 48°25' W 123°23'0 0.0
2017-Jun-17 01:28N 48°25' W 123°23'0 0.0
2017-Jun-17 00:55N 48°25' W 123°23'0 0.0
2017-Jun-17 00:25N 48°25' W 123°23'0 0.0
2017-Jun-16 23:54N 48°25' W 123°23'0 0.0
2017-Jun-16 23:27N 48°25' W 123°23'0 0.0
2017-Jun-16 23:00N 48°25' W 123°23'0 0.0
2017-Jun-16 22:30N 48°25' W 123°23'0 0.0
2017-Jun-16 22:00N 48°25' W 123°23'0 0.0
2017-Jun-16 21:29N 48°25' W 123°23'0 0.0
2017-Jun-16 21:00N 48°25' W 123°23'2 3.1
2017-Jun-16 20:30N 48°24' W 123°25'611.2
2017-Jun-16 20:00N 48°18' W 123°25'918.9
2017-Jun-16 19:30N 48°13' W 123°37'1020.3
2017-Jun-16 19:01N 48°13' W 123°52'1020.4
2017-Jun-16 18:30N 48°17' W 124°07'1121.7
2017-Jun-16 18:00N 48°22' W 124°22'1121.5
2017-Jun-16 17:31N 48°26' W 124°36'1121.3
2017-Jun-16 17:00N 48°29' W 124°52'1120.8
2017-Jun-16 16:30N 48°29' W 125°08'1121.4
2017-Jun-16 16:00N 48°34' W 125°22'2914.4
2017-Jun-16 14:00N 48°48' W 126°00'3736.5 280 / 181015.010.8 11.210.812.0
2017-Jun-16 13:00N 49°12' W 126°42'   280 / 161014.010.8 11.511.312.0
Track history (hours):
 
Tides and Currents Weather Stations Pressure Air Temp Water Temp Dewpoint Dewpoint Depression Visibility Wind Speed Wind Dir Waves Ship Positions

Norwegian Jewel

Last reported at 2017-Jun-26 11:00 UTC. Time now 2017-Jun-26 12:04 UTC.
Position N 54°42' W 131°06'.

Type: Ship. MMSI: 311827000.

Wind from 260 at 15 knots

Barometer 1015.0 mb
Air temperature 10.3 ° C

Date/timePositionNaut miles runAvg speedWind from/ knotsBaromVisibWave heightAir tempDewpointWater temp
2017-Jun-26 11:00N 54°42' W 131°06'22317.1 260 / 151015.0 10.3
2017-Jun-25 22:00N 51°06' W 129°36'14118.5 310 / 121018.0 11.7
2017-Jun-25 14:22N 49°23' W 127°05'616.5
2017-Jun-25 14:00N 49°18' W 127°00'1021.6 310 / 211015.010.8 13.513.013.0
2017-Jun-25 13:30N 49°13' W 126°46'1019.0
2017-Jun-25 13:00N 49°08' W 126°34'2177.5
2017-Jun-25 13:00N 49°06' W 126°36'1020.6 330 / 211024.0 14.1
2017-Jun-25 12:31N 49°02' W 126°22'1019.5
2017-Jun-25 12:01N 48°56' W 126°10'1019.5
2017-Jun-25 11:31N 48°51' W 125°58'1019.2
2017-Jun-25 11:01N 48°45' W 125°46'816.1
2017-Jun-25 10:31N 48°40' W 125°36'714.1
2017-Jun-25 10:00N 48°36' W 125°27'816.2
2017-Jun-25 09:31N 48°33' W 125°16'816.8
2017-Jun-25 09:01N 48°31' W 125°04'816.9
2017-Jun-25 08:31N 48°31' W 124°51'816.9
2017-Jun-25 08:01N 48°29' W 124°39'917.0
2017-Jun-25 07:31N 48°26' W 124°27'1016.9
2017-Jun-25 06:56N 48°22' W 124°13'717.1
2017-Jun-25 06:30N 48°20' W 124°03'816.9
2017-Jun-25 06:00N 48°18' W 123°51'917.6
2017-Jun-25 05:29N 48°16' W 123°37'816.5
2017-Jun-25 05:00N 48°12' W 123°26'611.4
2017-Jun-25 04:30N 48°09' W 123°20'816.4
2017-Jun-25 04:00N 48°12' W 123°08'1018.6
2017-Jun-25 03:29N 48°12' W 122°54'1019.2
2017-Jun-25 02:59N 48°08' W 122°41'918.6
2017-Jun-25 02:30N 47°60' W 122°36'918.8
2017-Jun-25 02:00N 47°52' W 122°28'918.4
2017-Jun-25 01:31N 47°43' W 122°27'713.9
2017-Jun-25 01:00N 47°37' W 122°22'1 1.6
2017-Jun-25 00:30N 47°37' W 122°21'0 0.0
2017-Jun-25 00:00N 47°37' W 122°21'0 0.0
2017-Jun-24 23:30N 47°37' W 122°21'0 0.0
2017-Jun-24 23:00N 47°37' W 122°21'0 0.0
2017-Jun-24 22:30N 47°37' W 122°21'0 0.0
2017-Jun-24 22:00N 47°37' W 122°21'0 0.0
2017-Jun-24 21:30N 47°37' W 122°21'0 0.0
2017-Jun-24 21:00N 47°37' W 122°21'0 0.0
2017-Jun-24 20:30N 47°37' W 122°21'0 0.0
2017-Jun-24 20:00N 47°37' W 122°21'0 0.0
2017-Jun-24 19:30N 47°37' W 122°21'0 0.0
2017-Jun-24 19:00N 47°37' W 122°21'0 0.0
2017-Jun-24 18:30N 47°37' W 122°21'0 0.0
2017-Jun-24 18:00N 47°37' W 122°21'0 0.0
2017-Jun-24 17:30N 47°37' W 122°21'0 0.0
2017-Jun-24 17:00N 47°37' W 122°21'0 0.0
2017-Jun-24 16:30N 47°37' W 122°21'0 0.0
2017-Jun-24 16:00N 47°37' W 122°21'0 0.0
2017-Jun-24 15:30N 47°37' W 122°21'0 0.0
2017-Jun-24 15:00N 47°37' W 122°21'0 0.0
2017-Jun-24 14:00N 47°37' W 122°21'0 0.0
2017-Jun-24 13:30N 47°37' W 122°21'0 0.0
2017-Jun-24 13:00N 47°37' W 122°21'0 0.3
2017-Jun-24 12:30N 47°37' W 122°21'2 4.5
2017-Jun-24 12:00N 47°37' W 122°24'4 8.4
2017-Jun-24 11:30N 47°41' W 122°28'510.3
2017-Jun-24 11:00N 47°46' W 122°27'510.7
2017-Jun-24 10:30N 47°51' W 122°29'1019.8
2017-Jun-24 10:00N 48°00' W 122°36'51046.9 360 / 111021.0 15.1
2017-Jun-24 09:59N 47°56' W 122°32'511.4
2017-Jun-24 09:30N 48°00' W 122°37'611.5
2017-Jun-24 09:00N 48°06' W 122°40'611.7
2017-Jun-24 08:30N 48°10' W 122°46'611.4
2017-Jun-24 08:00N 48°11' W 122°54'611.5
2017-Jun-24 07:30N 48°12' W 123°03'611.2
2017-Jun-24 07:00N 48°11' W 123°11'611.4
2017-Jun-24 06:30N 48°11' W 123°19'611.9
2017-Jun-24 06:00N 48°12' W 123°28'714.3
2017-Jun-24 05:30N 48°19' W 123°27'611.8
2017-Jun-24 05:00N 48°24' W 123°24'1 1.6
2017-Jun-24 04:28N 48°25' W 123°23'0 0.0
2017-Jun-24 03:55N 48°25' W 123°23'0 0.0
2017-Jun-24 03:25N 48°25' W 123°23'1820.4
2017-Jun-24 02:33N 48°14' W 123°44'122.3
2017-Jun-24 02:30N 48°14' W 123°45'1326.2
2017-Jun-24 02:00N 48°17' W 124°04'1223.7
2017-Jun-24 01:30N 48°22' W 124°21'1121.6
2017-Jun-24 01:00N 48°26' W 124°35'1733.4
2017-Jun-24 00:30N 48°28' W 125°00'64124.3
2017-Jun-23 23:59N 48°25' W 123°23'0 0.0
2017-Jun-23 23:29N 48°25' W 123°23'0 0.0
2017-Jun-23 22:59N 48°25' W 123°23'0 0.0
2017-Jun-23 22:29N 48°25' W 123°23'0 0.0
2017-Jun-23 21:58N 48°25' W 123°23'0 0.0
2017-Jun-23 21:28N 48°25' W 123°23'0 0.1
2017-Jun-23 21:00N 48°25' W 123°23'2 3.6
2017-Jun-23 20:30N 48°24' W 123°26'611.4
2017-Jun-23 20:00N 48°18' W 123°25'6380.4
2017-Jun-23 20:00N 48°12' W 123°24'816.9 120 / 151023.0 16.1 10.1
2017-Jun-23 19:30N 48°13' W 123°36'67134.6
2017-Jun-23 19:00N 48°29' W 125°14'1223.8
2017-Jun-23 18:30N 48°37' W 125°29'4689.6
2017-Jun-23 17:59N 48°23' W 124°23'1021.1
2017-Jun-23 17:30N 48°27' W 124°37'917.4
2017-Jun-23 17:00N 48°28' W 124°49'918.6
2017-Jun-23 16:30N 48°28' W 125°03'918.1
2017-Jun-23 16:00N 48°31' W 125°17'918.9
2017-Jun-23 15:30N 48°36' W 125°28'1019.4
2017-Jun-23 15:00N 48°41' W 125°41'1919.2
2017-Jun-23 14:00N 48°51' W 126°06'3212.4
2017-Jun-23 14:00N 48°48' W 126°06'1327.1 310 / 151024.010.8 14.013.513.0
2017-Jun-23 13:30N 48°58' W 126°19'1122.5
2017-Jun-23 13:00N 49°05' W 126°32'7449.6
2017-Jun-23 13:00N 49°00' W 126°24'1938.1 310 / 141024.010.8 13.513.213.0
2017-Jun-23 12:30N 49°12' W 126°45'1122.8
2017-Jun-23 12:01N 49°20' W 126°58'1122.9
2017-Jun-23 11:31N 49°27' W 127°12'1934.4
2017-Jun-23 10:58N 49°38' W 127°35'4 9.2
2017-Jun-23 10:31N 49°40' W 127°41'1122.7
2017-Jun-23 10:00N 49°49' W 127°53'164.3
2017-Jun-23 10:00N 49°48' W 127°54'1123.0 350 / 24 13.1
2017-Jun-23 09:30N 49°56' W 128°06'1122.4
2017-Jun-23 09:00N 50°04' W 128°19'1122.7
2017-Jun-23 08:30N 50°12' W 128°31'1122.6
2017-Jun-23 08:00N 50°20' W 128°44'1522.2
2017-Jun-23 07:19N 50°30' W 129°01'722.1
2017-Jun-23 07:00N 50°35' W 129°08'1122.6
2017-Jun-23 06:30N 50°43' W 129°21'1122.6
2017-Jun-23 06:00N 50°52' W 129°34'8120.1
2017-Jun-23 02:00N 51°48' W 131°06'3030.3 270 / 51029.010.8 12.111.613.0
2017-Jun-23 01:00N 52°12' W 131°36'19719.7 310 / 101030.010.8 13.512.813.0
2017-Jun-22 15:00N 55°06' W 134°12'3737.4 200 / 131030.010.8 10.410.213.0
2017-Jun-22 14:00N 55°42' W 134°30'2424.2 120 / 51029.0 5.4 10.610.412.0
2017-Jun-22 13:00N 56°06' W 134°24'   120 / 81029.010.8 10.610.112.0
2017-Jun-19 03:00N 52°36' W 130°24'3216.0 130 / 271013.0 5.4 11.411.213.0
2017-Jun-19 01:00N 52°06' W 130°06'2512.6 140 / 181018.0 5.4 11.711.513.0
2017-Jun-18 23:00N 51°42' W 129°54'3919.5 150 / 201016.0 12.2
2017-Jun-18 21:00N 51°06' W 129°30'11418.9 140 / 221016.0 12.7
2017-Jun-18 15:00N 49°42' W 127°30'1716.7 130 / 271016.0 2.2 12.912.713.0
2017-Jun-18 14:00N 49°30' W 127°12'6 7.9 130 / 241016.0 5.4 12.512.312.0
2017-Jun-18 13:14N 49°25' W 127°07'519.6
2017-Jun-18 12:59N 49°22' W 127°01'919.4
2017-Jun-18 12:30N 49°15' W 126°51'1019.4
2017-Jun-18 12:00N 49°10' W 126°39'1019.9
2017-Jun-18 11:30N 49°04' W 126°26'1019.9
2017-Jun-18 11:00N 48°59' W 126°13'3204.8
2017-Jun-18 11:00N 49°00' W 126°18'1327.1 110 / 251017.0 9.0
2017-Jun-18 10:30N 48°53' W 126°01'918.4
2017-Jun-18 10:00N 48°47' W 125°50'917.1
2017-Jun-18 09:30N 48°42' W 125°40'917.1
2017-Jun-18 09:00N 48°37' W 125°29'5369.8
2017-Jun-18 09:00N 48°36' W 125°36'1225.0 100 / 251018.0
2017-Jun-18 08:30N 48°33' W 125°18'816.7
2017-Jun-18 08:00N 48°31' W 125°06'917.3
2017-Jun-18 07:30N 48°31' W 124°53'815.6
2017-Jun-18 07:00N 48°30' W 124°41'815.1
2017-Jun-18 06:30N 48°27' W 124°31'815.8
2017-Jun-18 06:00N 48°24' W 124°20'815.6
2017-Jun-18 05:30N 48°21' W 124°09'815.7
2017-Jun-18 05:00N 48°18' W 123°58'815.5
2017-Jun-18 04:30N 48°16' W 123°47'815.0
2017-Jun-18 04:00N 48°15' W 123°35'714.2
2017-Jun-18 03:30N 48°12' W 123°26'611.3
2017-Jun-18 03:00N 48°09' W 123°19'917.8
2017-Jun-18 02:30N 48°13' W 123°07'1018.8
2017-Jun-18 01:59N 48°11' W 122°52'1317.4
2017-Jun-18 01:14N 48°03' W 122°38'519.7
2017-Jun-18 01:00N 47°59' W 122°35'919.2
2017-Jun-18 00:30N 47°50' W 122°28'1019.9
2017-Jun-18 00:01N 47°41' W 122°27'611.3
2017-Jun-17 23:30N 47°37' W 122°21'0 0.3
2017-Jun-17 23:00N 47°37' W 122°21'0 0.0
2017-Jun-17 22:30N 47°37' W 122°21'0 0.0
2017-Jun-17 22:00N 47°37' W 122°21'0 0.0
2017-Jun-17 21:30N 47°37' W 122°21'0 0.0
2017-Jun-17 21:00N 47°37' W 122°21'0 0.0
2017-Jun-17 20:30N 47°37' W 122°21'0 0.0
2017-Jun-17 19:59N 47°37' W 122°21'0 0.0
2017-Jun-17 19:29N 47°37' W 122°21'0 0.0
2017-Jun-17 18:59N 47°37' W 122°21'0 0.0
2017-Jun-17 18:29N 47°37' W 122°21'0 0.0
2017-Jun-17 17:59N 47°37' W 122°21'0 0.0
2017-Jun-17 17:28N 47°37' W 122°21'0 0.0
2017-Jun-17 16:58N 47°37' W 122°21'0 0.0
2017-Jun-17 16:30N 47°37' W 122°21'0 0.0
2017-Jun-17 16:00N 47°37' W 122°21'0 0.0
2017-Jun-17 15:30N 47°37' W 122°21'0 0.0
2017-Jun-17 15:00N 47°37' W 122°21'0 0.0
2017-Jun-17 14:31N 47°37' W 122°21'0 0.0
2017-Jun-17 13:29N 47°37' W 122°21'0 0.0
2017-Jun-17 13:00N 47°37' W 122°21'1 1.0
2017-Jun-17 12:31N 47°36' W 122°21'3 6.8
2017-Jun-17 12:00N 47°37' W 122°26'4 8.7
2017-Jun-17 11:30N 47°41' W 122°28'510.3
2017-Jun-17 11:00N 47°46' W 122°27'510.7
2017-Jun-17 10:30N 47°52' W 122°29'510.2
2017-Jun-17 10:00N 47°56' W 122°32'510.2
2017-Jun-17 09:30N 47°60' W 122°37'610.8
2017-Jun-17 08:57N 48°06' W 122°40'510.3
2017-Jun-17 08:28N 48°09' W 122°45'510.2
2017-Jun-17 08:00N 48°11' W 122°52'611.0
2017-Jun-17 07:29N 48°12' W 123°00'511.2
2017-Jun-17 07:00N 48°12' W 123°08'611.1
2017-Jun-17 06:30N 48°11' W 123°16'510.3
2017-Jun-17 06:01N 48°10' W 123°24'713.7
2017-Jun-17 05:29N 48°16' W 123°30'713.6
2017-Jun-17 05:00N 48°22' W 123°25'3 6.5
2017-Jun-17 04:30N 48°25' W 123°23'0 0.1
2017-Jun-17 02:59N 48°25' W 123°23'0 0.0
2017-Jun-17 01:52N 48°25' W 123°23'0 0.0
2017-Jun-17 01:28N 48°25' W 123°23'0 0.0
2017-Jun-17 00:55N 48°25' W 123°23'0 0.0
2017-Jun-17 00:25N 48°25' W 123°23'0 0.0
2017-Jun-16 23:54N 48°25' W 123°23'0 0.0
2017-Jun-16 23:27N 48°25' W 123°23'0 0.0
2017-Jun-16 23:00N 48°25' W 123°23'0 0.0
2017-Jun-16 22:30N 48°25' W 123°23'0 0.0
2017-Jun-16 22:00N 48°25' W 123°23'0 0.0
2017-Jun-16 21:29N 48°25' W 123°23'0 0.0
2017-Jun-16 21:00N 48°25' W 123°23'2 3.1
2017-Jun-16 20:30N 48°24' W 123°25'611.2
2017-Jun-16 20:00N 48°18' W 123°25'918.9
2017-Jun-16 19:30N 48°13' W 123°37'1020.3
2017-Jun-16 19:01N 48°13' W 123°52'1020.4
2017-Jun-16 18:30N 48°17' W 124°07'1121.7
2017-Jun-16 18:00N 48°22' W 124°22'1121.5
2017-Jun-16 17:31N 48°26' W 124°36'1121.3
2017-Jun-16 17:00N 48°29' W 124°52'1120.8
2017-Jun-16 16:30N 48°29' W 125°08'1121.4
2017-Jun-16 16:00N 48°34' W 125°22'2914.4
2017-Jun-16 14:00N 48°48' W 126°00'3736.5 280 / 181015.010.8 11.210.812.0
2017-Jun-16 13:00N 49°12' W 126°42'   280 / 161014.010.8 11.511.312.0

Dump ship's entire track history